createdAt,value
2023-02-15T00:00:00.931Z,100330.97
2023-02-15T00:02:27.941Z,100330.97
2023-02-15T00:04:56.963Z,100337.78
2023-02-15T00:07:23.823Z,100321.56
2023-02-15T00:09:50.804Z,100335.22
2023-02-15T00:12:17.969Z,100330.97
2023-02-15T00:14:45.301Z,100312.09
2023-02-15T00:17:12.137Z,100306.09
2023-02-15T00:19:38.940Z,100324.94
2023-02-15T00:22:05.778Z,100319.81
2023-02-15T00:24:32.944Z,100316.34
2023-02-15T00:26:59.854Z,100321.50
2023-02-15T00:29:26.692Z,100312.97
2023-02-15T00:31:54.198Z,100324.06
2023-02-15T00:34:24.842Z,100324.94
2023-02-15T00:36:52.282Z,100283.88
2023-02-15T00:39:19.782Z,100314.66
2023-02-15T00:41:48.176Z,100319.75
2023-02-15T00:44:15.436Z,100306.09
2023-02-15T00:46:42.514Z,100321.44
2023-02-15T00:49:09.994Z,100315.44
2023-02-15T00:51:36.883Z,100287.25
2023-02-15T00:54:03.730Z,100312.88
2023-02-15T00:56:30.599Z,100303.47
2023-02-15T00:58:57.503Z,100318.00
2023-02-15T01:01:24.752Z,100316.31
2023-02-15T01:03:51.690Z,100312.88
2023-02-15T01:06:19.087Z,100318.00
2023-02-15T01:08:47.129Z,100304.34
2023-02-15T01:11:24.662Z,100315.47
2023-02-15T01:13:57.247Z,100309.47
2023-02-15T01:16:27.053Z,100319.75
2023-02-15T01:18:55.610Z,100316.31
2023-02-15T01:21:24.848Z,100311.19
2023-02-15T01:23:51.723Z,100309.47
2023-02-15T01:26:18.619Z,100308.66
2023-02-15T01:28:46.421Z,100312.91
2023-02-15T01:31:18.413Z,100307.78
2023-02-15T01:33:46.246Z,100311.16
2023-02-15T01:36:13.518Z,100313.72
2023-02-15T01:38:43.093Z,100295.72
2023-02-15T01:41:25.483Z,100312.75
2023-02-15T01:43:58.769Z,100308.50
2023-02-15T01:46:34.132Z,100283.69
2023-02-15T01:49:12.399Z,100293.09
2023-02-15T01:51:43.534Z,100306.75
2023-02-15T01:54:28.523Z,100296.59
2023-02-15T01:57:03.158Z,100299.09
2023-02-15T01:59:32.059Z,100293.91
2023-02-15T02:02:00.809Z,100298.22
2023-02-15T02:04:36.117Z,100283.66
2023-02-15T02:07:04.766Z,100295.66
2023-02-15T02:09:31.669Z,100299.09
2023-02-15T02:11:59.266Z,100260.56
2023-02-15T02:14:26.627Z,100295.63
2023-02-15T02:17:22.899Z,100295.63
2023-02-15T02:20:29.969Z,100293.03
2023-02-15T02:23:28.217Z,100284.53
2023-02-15T02:26:32.355Z,100287.09
2023-02-15T02:29:22.097Z,100281.97
2023-02-15T02:32:25.982Z,100282.78
2023-02-15T02:35:01.498Z,100277.66
2023-02-15T02:38:04.267Z,100275.91
2023-02-15T02:40:54.811Z,100274.31
2023-02-15T02:43:44.830Z,100270.88
2023-02-15T02:46:23.567Z,100273.38
2023-02-15T02:48:51.038Z,100262.22
2023-02-15T02:51:22.332Z,100285.28
2023-02-15T02:53:54.656Z,100284.44
2023-02-15T02:56:48.594Z,100280.22
2023-02-15T02:59:27.362Z,100273.25
2023-02-15T03:02:08.931Z,100276.72
2023-02-15T03:04:43.325Z,100264.75
2023-02-15T03:07:16.321Z,100273.28
2023-02-15T03:09:47.460Z,100247.66
2023-02-15T03:12:25.393Z,100257.16
2023-02-15T03:15:03.468Z,100266.56
2023-02-15T03:17:35.271Z,100248.59
2023-02-15T03:20:10.285Z,100265.69
2023-02-15T03:22:43.763Z,100275.91
2023-02-15T03:25:47.541Z,100268.16
2023-02-15T03:28:20.280Z,100274.13
2023-02-15T03:30:53.019Z,100274.16
2023-02-15T03:33:21.958Z,100267.28
2023-02-15T03:36:04.535Z,100262.19
2023-02-15T03:38:42.488Z,100262.16
2023-02-15T03:41:11.222Z,100249.31
2023-02-15T03:44:00.699Z,100269.84
2023-02-15T03:46:45.198Z,100267.19
2023-02-15T03:49:27.851Z,100262.97
2023-02-15T03:51:57.267Z,100265.53
2023-02-15T03:54:44.070Z,100265.50
2023-02-15T03:57:34.633Z,100268.06
2023-02-15T04:00:24.287Z,100248.41
2023-02-15T04:03:27.886Z,100254.31
2023-02-15T04:05:56.237Z,100256.94
2023-02-15T04:08:43.058Z,100254.31
2023-02-15T04:11:09.904Z,100264.59
2023-02-15T04:13:37.359Z,100257.66
2023-02-15T04:16:05.290Z,100272.19
2023-02-15T04:19:02.708Z,100267.06
2023-02-15T04:21:50.213Z,100257.72
2023-02-15T04:24:36.090Z,100237.97
2023-02-15T04:27:05.243Z,100254.28
2023-02-15T04:29:32.514Z,100233.75
2023-02-15T04:32:01.298Z,100254.28
2023-02-15T04:34:28.263Z,100217.47
2023-02-15T04:36:55.093Z,100260.22
2023-02-15T04:39:21.867Z,100256.78
2023-02-15T04:41:48.924Z,100261.06
2023-02-15T04:44:16.229Z,100233.75
2023-02-15T04:46:43.028Z,100240.53
2023-02-15T04:49:10.430Z,100249.13
2023-02-15T04:51:37.690Z,100221.75
2023-02-15T04:54:04.771Z,100242.28
2023-02-15T04:56:32.225Z,100249.03
2023-02-15T04:58:59.069Z,100248.19
2023-02-15T05:01:26.081Z,100243.84
2023-02-15T05:03:53.043Z,100251.53
2023-02-15T05:06:19.921Z,100252.38
2023-02-15T05:08:46.790Z,100255.75
2023-02-15T05:11:13.606Z,100227.56
2023-02-15T05:13:40.604Z,100240.34
2023-02-15T05:16:07.477Z,100178.84
2023-02-15T05:18:34.389Z,100215.72
2023-02-15T05:21:01.265Z,100199.47
2023-02-15T05:23:28.139Z,100226.88
2023-02-15T05:26:13.495Z,100225.09
2023-02-15T05:28:40.814Z,100233.63
2023-02-15T05:31:13.252Z,100233.66
2023-02-15T05:33:41.000Z,100231.97
2023-02-15T05:36:08.949Z,100227.66
2023-02-15T05:38:38.336Z,100241.22
2023-02-15T05:41:06.749Z,100247.22
2023-02-15T05:43:33.983Z,100244.66
2023-02-15T05:46:01.827Z,100252.31
2023-02-15T05:48:29.510Z,100242.97
2023-02-15T05:51:03.623Z,100248.09
2023-02-15T05:53:33.835Z,100248.97
2023-02-15T05:56:03.318Z,100235.31
2023-02-15T05:58:39.907Z,100248.97
2023-02-15T06:01:18.113Z,100248.09
2023-02-15T06:03:46.218Z,100244.72
2023-02-15T06:06:13.213Z,100250.59
2023-02-15T06:08:40.140Z,100252.31
2023-02-15T06:11:07.956Z,100249.78
2023-02-15T06:13:38.361Z,100253.09
2023-02-15T06:16:07.209Z,100250.53
2023-02-15T06:18:34.457Z,100253.94
2023-02-15T06:21:01.358Z,100253.09
2023-02-15T06:23:28.284Z,100268.34
2023-02-15T06:25:55.104Z,100269.25
2023-02-15T06:28:21.994Z,100269.25
2023-02-15T06:30:48.925Z,100277.78
2023-02-15T06:33:15.740Z,100276.13
2023-02-15T06:35:42.631Z,100284.59
2023-02-15T06:38:09.436Z,100282.91
2023-02-15T06:40:36.364Z,100278.56
2023-02-15T06:43:03.208Z,100276.00
2023-02-15T06:45:30.197Z,100282.00
2023-02-15T06:47:57.018Z,100281.91
2023-02-15T06:50:23.820Z,100275.09
2023-02-15T06:52:50.742Z,100283.63
2023-02-15T06:55:17.540Z,100287.00
2023-02-15T06:57:44.365Z,100286.09
2023-02-15T07:00:12.054Z,100286.09
2023-02-15T07:02:38.877Z,100283.47
2023-02-15T07:05:06.090Z,100283.56
2023-02-15T07:07:33.055Z,100281.75
2023-02-15T07:09:59.961Z,100300.66
2023-02-15T07:12:42.271Z,100286.19
2023-02-15T07:15:16.236Z,100268.28
2023-02-15T07:17:44.374Z,100281.13
2023-02-15T07:20:23.154Z,100293.97
2023-02-15T07:22:52.577Z,100284.56
2023-02-15T07:25:19.615Z,100291.44
2023-02-15T07:27:46.679Z,100297.38
2023-02-15T07:30:17.011Z,100299.13
2023-02-15T07:33:05.341Z,100293.13
2023-02-15T07:35:33.433Z,100297.38
2023-02-15T07:38:00.285Z,100251.25
2023-02-15T07:40:27.353Z,100282.91
2023-02-15T07:42:55.551Z,100294.03
2023-02-15T07:45:23.063Z,100264.13
2023-02-15T07:47:50.104Z,100264.19
2023-02-15T07:50:16.960Z,100282.19
2023-02-15T07:52:43.784Z,100277.06
2023-02-15T07:55:13.623Z,100263.41
2023-02-15T07:57:49.235Z,100283.06
2023-02-15T08:00:19.365Z,100282.25
2023-02-15T08:03:10.496Z,100269.47
2023-02-15T08:05:37.740Z,100274.63
2023-02-15T08:08:05.044Z,100251.56
2023-02-15T08:10:50.282Z,100272.13
2023-02-15T08:13:17.197Z,100269.59
2023-02-15T08:15:52.881Z,100274.72
2023-02-15T08:18:19.816Z,100273.06
2023-02-15T08:20:52.890Z,100273.94
2023-02-15T08:23:19.770Z,100259.41
2023-02-15T08:25:46.655Z,100273.16
2023-02-15T08:28:13.481Z,100271.47
2023-02-15T08:30:40.350Z,100278.28
2023-02-15T08:33:07.165Z,100265.50
2023-02-15T08:35:35.026Z,100278.34
2023-02-15T08:38:01.848Z,100286.91
2023-02-15T08:40:28.831Z,100264.72
2023-02-15T08:42:55.653Z,100265.66
2023-02-15T08:45:22.552Z,100268.22
2023-02-15T08:47:49.357Z,100264.00
2023-02-15T08:50:16.201Z,100267.44
2023-02-15T08:52:43.015Z,100242.72
2023-02-15T08:55:09.793Z,100261.53
2023-02-15T08:57:36.626Z,100259.84
2023-02-15T09:00:05.638Z,100264.16
2023-02-15T09:02:32.608Z,100253.94
2023-02-15T09:04:59.400Z,100250.53
2023-02-15T09:07:26.177Z,100254.84
2023-02-15T09:09:52.972Z,100258.25
2023-02-15T09:12:19.839Z,100252.31
2023-02-15T09:14:46.617Z,100251.47
2023-02-15T09:17:15.978Z,100253.19
2023-02-15T09:19:42.941Z,100242.97
2023-02-15T09:22:09.790Z,100245.53
2023-02-15T09:24:36.600Z,100234.47
2023-02-15T09:27:03.404Z,100233.63
2023-02-15T09:29:30.189Z,100229.38
2023-02-15T09:31:57.151Z,100231.09
2023-02-15T09:34:24.560Z,100209.75
2023-02-15T09:36:52.170Z,100228.56
2023-02-15T09:39:28.258Z,100225.16
2023-02-15T09:42:20.444Z,100234.53
2023-02-15T09:45:08.000Z,100232.84
2023-02-15T09:48:00.892Z,100235.41
2023-02-15T09:50:55.583Z,100227.78
2023-02-15T09:53:54.561Z,100225.25
2023-02-15T09:56:58.252Z,100189.41
2023-02-15T09:59:36.334Z,100215.84
2023-02-15T10:02:38.221Z,100221.84
2023-02-15T10:05:38.180Z,100209.06
2023-02-15T10:08:26.350Z,100215.88
2023-02-15T10:11:26.781Z,100201.38
2023-02-15T10:14:38.730Z,100203.06
2023-02-15T10:17:48.946Z,100205.66
2023-02-15T10:20:22.959Z,100202.25
2023-02-15T10:23:07.935Z,100198.84
2023-02-15T10:26:01.783Z,100196.28
2023-02-15T10:29:01.762Z,100196.28
2023-02-15T10:31:51.841Z,100144.22
2023-02-15T10:34:40.452Z,100172.34
2023-02-15T10:37:28.825Z,100178.34
2023-02-15T10:40:28.810Z,100175.78
2023-02-15T10:43:11.949Z,100167.19
2023-02-15T10:46:03.785Z,100156.09
2023-02-15T10:49:08.593Z,100165.50
2023-02-15T10:51:48.527Z,100161.22
2023-02-15T10:54:46.175Z,100146.69
2023-02-15T10:57:25.757Z,100092.13
2023-02-15T11:00:11.906Z,100123.59
2023-02-15T11:03:06.638Z,100118.50
2023-02-15T11:06:05.752Z,100137.22
2023-02-15T11:08:39.088Z,100130.41
2023-02-15T11:11:14.885Z,100128.66
2023-02-15T11:13:48.754Z,100116.66
2023-02-15T11:16:22.361Z,100104.75
2023-02-15T11:18:55.632Z,100120.88
2023-02-15T11:21:29.260Z,100109.75
2023-02-15T11:23:56.951Z,100110.56
2023-02-15T11:26:35.338Z,100105.41
2023-02-15T11:29:33.466Z,100097.69
2023-02-15T11:32:15.514Z,100101.06
2023-02-15T11:35:12.573Z,100093.38
2023-02-15T11:37:45.204Z,100103.56
2023-02-15T11:40:50.262Z,100094.09
2023-02-15T11:43:30.056Z,100094.88
2023-02-15T11:45:57.131Z,100076.78
2023-02-15T11:48:24.298Z,100094.75
2023-02-15T11:50:51.169Z,100091.31
2023-02-15T11:53:28.638Z,100083.59
2023-02-15T11:55:56.562Z,100080.72
2023-02-15T11:58:44.320Z,100079.88
2023-02-15T12:01:26.147Z,100081.47
2023-02-15T12:03:56.686Z,100074.63
2023-02-15T12:06:31.588Z,100080.53
2023-02-15T12:09:25.517Z,100075.31
2023-02-15T12:11:54.610Z,100069.06
2023-02-15T12:14:22.002Z,100065.50
2023-02-15T12:16:52.846Z,100068.97
2023-02-15T12:19:40.940Z,100075.78
2023-02-15T12:22:33.690Z,100063.50
2023-02-15T12:25:23.523Z,100060.06
2023-02-15T12:27:51.230Z,100059.19
2023-02-15T12:30:26.202Z,100059.06
2023-02-15T12:32:58.118Z,100051.28
2023-02-15T12:35:30.665Z,100036.66
2023-02-15T12:38:26.499Z,100041.59
2023-02-15T12:41:04.065Z,100041.25
2023-02-15T12:43:39.104Z,100031.06
2023-02-15T12:46:27.372Z,100040.25
2023-02-15T12:49:21.839Z,100034.94
2023-02-15T12:51:59.410Z,100036.63
2023-02-15T12:54:40.982Z,100031.19
2023-02-15T12:57:30.254Z,100020.16
2023-02-15T13:00:02.486Z,100002.06
2023-02-15T13:02:46.560Z,100001.91
2023-02-15T13:05:39.872Z,99990.75
2023-02-15T13:08:37.377Z,100004.31
2023-02-15T13:11:10.757Z,99996.59
2023-02-15T13:13:54.150Z,99991.38
2023-02-15T13:16:38.590Z,99989.41
2023-02-15T13:19:30.904Z,99988.31
2023-02-15T13:21:59.042Z,99985.75
2023-02-15T13:24:31.002Z,99983.22
2023-02-15T13:27:14.172Z,99981.38
2023-02-15T13:29:59.062Z,99959.88
2023-02-15T13:32:34.803Z,99963.03
2023-02-15T13:35:06.610Z,99962.88
2023-02-15T13:37:51.723Z,99957.75
2023-02-15T13:40:52.326Z,99960.31
2023-02-15T13:43:59.401Z,99950.94
2023-02-15T13:46:53.756Z,99965.19
2023-02-15T13:49:48.237Z,99948.88
2023-02-15T13:52:23.280Z,99955.63
2023-02-15T13:55:15.287Z,99945.13
2023-02-15T13:58:05.715Z,99953.63
2023-02-15T14:00:58.117Z,99950.91
2023-02-15T14:04:02.528Z,99951.59
2023-02-15T14:07:10.605Z,99947.97
2023-02-15T14:09:58.647Z,99941.91
2023-02-15T14:13:10.152Z,99925.75
2023-02-15T14:15:51.570Z,99940.91
2023-02-15T14:18:30.046Z,99941.53
2023-02-15T14:21:34.309Z,99933.72
2023-02-15T14:24:32.179Z,99943.97
2023-02-15T14:27:53.282Z,99901.28
2023-02-15T14:30:27.640Z,99938.69
2023-02-15T14:33:01.082Z,99939.44
2023-02-15T14:35:31.386Z,99925.91
2023-02-15T14:38:21.388Z,99936.09
2023-02-15T14:41:29.943Z,99940.91
2023-02-15T14:44:16.978Z,99942.47
2023-02-15T14:47:04.967Z,99943.97
2023-02-15T14:49:40.935Z,99926.22
2023-02-15T14:52:12.487Z,99936.28
2023-02-15T14:54:39.166Z,99943.00
2023-02-15T14:57:07.309Z,99937.75
2023-02-15T14:59:59.232Z,99933.41
2023-02-15T15:02:50.045Z,99936.56
2023-02-15T15:05:35.034Z,99934.84
2023-02-15T15:08:05.702Z,99940.00
2023-02-15T15:10:44.987Z,99925.47
2023-02-15T15:13:32.806Z,99942.59
2023-02-15T15:16:38.133Z,99939.78
2023-02-15T15:19:10.873Z,99946.72
2023-02-15T15:21:49.844Z,99942.31
2023-02-15T15:24:38.380Z,99942.31
2023-02-15T15:27:46.456Z,99936.19
2023-02-15T15:30:16.000Z,99934.09
2023-02-15T15:33:16.106Z,99935.13
2023-02-15T15:36:23.541Z,99926.41
2023-02-15T15:39:40.456Z,99930.72
2023-02-15T15:42:29.268Z,99924.03
2023-02-15T15:46:06.057Z,99933.28
2023-02-15T15:48:41.396Z,99941.66
2023-02-15T15:51:20.364Z,99933.19
2023-02-15T15:53:53.917Z,99930.81
2023-02-15T15:56:28.980Z,99914.88
2023-02-15T15:59:03.937Z,99936.00
2023-02-15T16:01:37.192Z,99947.25
2023-02-15T16:04:04.147Z,99945.66
2023-02-15T16:06:40.145Z,99933.75
2023-02-15T16:09:26.424Z,99939.78
2023-02-15T16:12:01.221Z,99944.03
2023-02-15T16:14:39.628Z,99931.94
2023-02-15T16:17:16.745Z,99915.22
2023-02-15T16:19:44.750Z,99937.50
2023-02-15T16:22:19.343Z,99935.88
2023-02-15T16:25:05.034Z,99940.28
2023-02-15T16:27:42.540Z,99946.47
2023-02-15T16:30:32.879Z,99927.28
2023-02-15T16:33:12.938Z,99947.06
2023-02-15T16:35:53.990Z,99943.84
2023-02-15T16:38:45.450Z,99954.34
2023-02-15T16:41:16.860Z,99946.84
2023-02-15T16:43:48.672Z,99951.19
2023-02-15T16:46:34.058Z,99965.81
2023-02-15T16:49:05.835Z,99967.69
2023-02-15T16:51:35.383Z,99964.41
2023-02-15T16:54:09.053Z,99968.75
2023-02-15T16:56:37.286Z,99968.97
2023-02-15T16:59:04.374Z,99966.38
2023-02-15T17:01:33.640Z,99959.81
2023-02-15T17:04:38.945Z,99974.34
2023-02-15T17:07:20.707Z,99988.19
2023-02-15T17:09:58.048Z,99982.34
2023-02-15T17:12:57.204Z,99983.16
2023-02-15T17:15:36.580Z,99976.56
2023-02-15T17:18:25.843Z,99990.97
2023-02-15T17:21:01.072Z,99993.59
2023-02-15T17:23:34.644Z,99994.59
2023-02-15T17:26:25.197Z,99999.78
2023-02-15T17:28:59.500Z,100005.88
2023-02-15T17:31:32.860Z,100004.16
2023-02-15T17:34:03.305Z,99983.00
2023-02-15T17:36:32.013Z,100009.38
2023-02-15T17:38:58.760Z,100009.31
2023-02-15T17:41:30.075Z,100009.31
2023-02-15T17:43:57.486Z,100007.78
2023-02-15T17:46:25.641Z,100023.34
2023-02-15T17:48:56.024Z,100007.88
2023-02-15T17:51:23.499Z,99948.34
2023-02-15T17:54:09.414Z,100022.50
2023-02-15T17:56:38.210Z,100009.56
2023-02-15T17:59:10.204Z,100010.31
2023-02-15T18:02:03.688Z,99989.06
2023-02-15T18:04:52.115Z,100010.25
2023-02-15T18:07:38.159Z,99999.31
2023-02-15T18:10:37.213Z,100001.00
2023-02-15T18:13:04.834Z,100009.47
2023-02-15T18:15:31.735Z,100013.06
2023-02-15T18:17:58.627Z,100019.13
2023-02-15T18:20:36.850Z,100011.47
2023-02-15T18:23:03.733Z,99997.06
2023-02-15T18:25:30.567Z,100020.25
2023-02-15T18:27:57.427Z,100016.19
2023-02-15T18:30:28.023Z,100025.59
2023-02-15T18:32:57.672Z,100021.38
2023-02-15T18:35:31.979Z,100022.28
2023-02-15T18:38:00.718Z,100022.34
2023-02-15T18:40:29.139Z,100031.16
2023-02-15T18:42:57.129Z,100031.16
2023-02-15T18:45:32.828Z,100014.25
2023-02-15T18:47:59.846Z,100032.06
2023-02-15T18:50:32.776Z,100022.75
2023-02-15T18:52:59.622Z,100038.09
2023-02-15T18:55:28.237Z,100045.84
2023-02-15T18:57:57.032Z,100045.97
2023-02-15T19:00:28.531Z,100040.00
2023-02-15T19:02:56.121Z,99999.31
2023-02-15T19:05:24.191Z,100036.91
2023-02-15T19:07:51.784Z,100035.28
2023-02-15T19:10:28.736Z,100034.59
2023-02-15T19:12:56.179Z,100026.22
2023-02-15T19:15:30.822Z,100033.09
2023-02-15T19:17:57.779Z,100030.63
2023-02-15T19:20:31.361Z,100029.75
2023-02-15T19:23:00.377Z,100034.97
2023-02-15T19:25:37.596Z,100041.00
2023-02-15T19:28:21.109Z,100023.19
2023-02-15T19:30:48.142Z,100042.81
2023-02-15T19:33:20.600Z,100042.78
2023-02-15T19:35:52.383Z,100043.72
2023-02-15T19:38:29.143Z,100037.81
2023-02-15T19:41:04.777Z,100039.56
2023-02-15T19:43:31.741Z,100025.25
2023-02-15T19:45:58.598Z,100034.44
2023-02-15T19:48:25.479Z,100022.63
2023-02-15T19:50:56.833Z,100032.94
2023-02-15T19:53:26.660Z,100033.81
2023-02-15T19:55:54.503Z,100029.56
2023-02-15T19:58:21.899Z,100029.66
2023-02-15T20:00:51.102Z,100022.91
2023-02-15T20:03:17.989Z,100023.84
2023-02-15T20:05:45.191Z,100019.72
2023-02-15T20:08:18.387Z,99977.97
2023-02-15T20:10:45.967Z,100029.13
2023-02-15T20:13:18.899Z,100015.56
2023-02-15T20:15:46.616Z,100031.69
2023-02-15T20:18:13.754Z,100021.44
2023-02-15T20:20:53.632Z,100030.00
2023-02-15T20:23:27.964Z,100019.69
2023-02-15T20:25:59.726Z,100016.41
2023-02-15T20:28:31.276Z,99992.63
2023-02-15T20:30:58.460Z,100021.63
2023-02-15T20:33:25.374Z,100008.81
2023-02-15T20:35:52.496Z,100014.00
2023-02-15T20:38:27.999Z,99973.94
2023-02-15T20:41:15.744Z,100001.13
2023-02-15T20:43:42.684Z,99999.53
2023-02-15T20:46:09.762Z,99983.41
2023-02-15T20:48:37.009Z,100013.28
2023-02-15T20:51:04.499Z,100000.63
2023-02-15T20:53:31.948Z,100004.81
2023-02-15T20:55:58.858Z,99996.38
2023-02-15T20:58:28.752Z,100000.59
2023-02-15T21:00:58.373Z,99998.03
2023-02-15T21:03:30.810Z,99996.28
2023-02-15T21:05:58.854Z,99995.44
2023-02-15T21:08:26.743Z,99994.63
2023-02-15T21:10:54.060Z,99976.78
2023-02-15T21:13:30.827Z,99993.84
2023-02-15T21:15:58.536Z,99988.81
2023-02-15T21:18:33.189Z,100005.84
2023-02-15T21:21:06.344Z,100003.38
2023-02-15T21:23:41.079Z,99994.88
2023-02-15T21:26:21.415Z,100015.41
2023-02-15T21:28:49.169Z,100015.41
2023-02-15T21:31:22.629Z,100005.13
2023-02-15T21:33:49.957Z,100022.25
2023-02-15T21:36:23.920Z,100000.94
2023-02-15T21:38:51.160Z,100015.47
2023-02-15T21:41:40.020Z,100018.00
2023-02-15T21:44:42.160Z,100022.34
2023-02-15T21:47:49.848Z,100019.81
2023-02-15T21:50:43.880Z,100011.34
2023-02-15T21:53:17.000Z,100008.81
2023-02-15T21:55:43.782Z,100004.59
2023-02-15T21:58:20.754Z,99990.09
2023-02-15T22:00:48.202Z,100014.81
2023-02-15T22:03:15.166Z,100008.88
2023-02-15T22:05:41.983Z,100002.03
2023-02-15T22:08:13.929Z,99977.34
2023-02-15T22:10:41.558Z,100012.38
2023-02-15T22:13:20.206Z,99991.13
2023-02-15T22:15:47.434Z,100003.84
2023-02-15T22:18:27.696Z,100007.28
2023-02-15T22:20:55.948Z,100017.47
2023-02-15T22:23:23.652Z,100014.88
2023-02-15T22:26:21.955Z,99981.59
2023-02-15T22:28:49.091Z,100009.72
2023-02-15T22:31:22.213Z,100003.78
2023-02-15T22:33:54.583Z,100012.31
2023-02-15T22:36:30.202Z,99983.38
2023-02-15T22:38:58.151Z,100005.53
2023-02-15T22:41:29.475Z,100015.75
2023-02-15T22:43:57.023Z,99997.06
2023-02-15T22:46:26.015Z,100015.78
2023-02-15T22:48:53.291Z,100018.38
2023-02-15T22:51:23.829Z,100010.69
2023-02-15T22:53:54.513Z,100012.44
2023-02-15T22:56:44.761Z,99987.78
2023-02-15T22:59:21.998Z,100014.97
2023-02-15T23:01:49.444Z,100015.03
2023-02-15T23:04:28.481Z,100018.44
2023-02-15T23:06:58.216Z,100017.66
2023-02-15T23:09:25.251Z,100013.41
2023-02-15T23:11:52.809Z,100021.94
2023-02-15T23:14:27.272Z,100021.06
2023-02-15T23:16:54.754Z,100023.66
2023-02-15T23:19:21.884Z,100033.06
2023-02-15T23:21:48.858Z,100030.56
2023-02-15T23:24:24.408Z,100028.00
2023-02-15T23:26:51.671Z,100001.66
2023-02-15T23:29:24.670Z,100038.28
2023-02-15T23:31:54.913Z,100028.03
2023-02-15T23:34:29.077Z,100038.31
2023-02-15T23:36:57.001Z,100002.50
2023-02-15T23:39:47.321Z,100027.19
2023-02-15T23:42:23.204Z,100034.88
2023-02-15T23:44:50.247Z,100034.88
2023-02-15T23:47:43.245Z,100031.47
2023-02-15T23:50:38.680Z,100040.88
2023-02-15T23:53:05.531Z,100033.22
2023-02-15T23:55:41.374Z,100047.72
2023-02-15T23:58:16.979Z,100048.63
